sensor_id;sensor_type;location;lat;lon;timestamp;temperature;humidity
46562;DHT22;32289;42.688;23.330;2022-10-16T00:02:39;8.60;99.90
46562;DHT22;32289;42.688;23.330;2022-10-16T00:06:21;8.50;99.90
46562;DHT22;32289;42.688;23.330;2022-10-16T00:10:02;8.50;99.90
46562;DHT22;32289;42.688;23.330;2022-10-16T00:13:44;8.40;99.90
46562;DHT22;32289;42.688;23.330;2022-10-16T00:17:25;8.30;99.90
46562;DHT22;32289;42.688;23.330;2022-10-16T00:21:09;8.30;99.90
46562;DHT22;32289;42.688;23.330;2022-10-16T00:24:50;8.30;99.90
46562;DHT22;32289;42.688;23.330;2022-10-16T00:28:31;8.30;99.90
46562;DHT22;32289;42.688;23.330;2022-10-16T00:32:12;8.20;99.90
46562;DHT22;32289;42.688;23.330;2022-10-16T00:35:53;8.20;99.90
46562;DHT22;32289;42.688;23.330;2022-10-16T00:39:33;8.10;99.90
46562;DHT22;32289;42.688;23.330;2022-10-16T00:43:34;8.10;99.90
46562;DHT22;32289;42.688;23.330;2022-10-16T00:51:06;8.00;99.90
46562;DHT22;32289;42.688;23.330;2022-10-16T00:54:49;8.00;99.90
46562;DHT22;32289;42.688;23.330;2022-10-16T00:58:30;8.00;99.90
46562;DHT22;32289;42.688;23.330;2022-10-16T01:02:15;7.90;99.90
46562;DHT22;32289;42.688;23.330;2022-10-16T01:06:21;7.90;99.90
46562;DHT22;32289;42.688;23.330;2022-10-16T01:10:35;7.90;99.90
46562;DHT22;32289;42.688;23.330;2022-10-16T01:14:29;7.80;99.90
46562;DHT22;32289;42.688;23.330;2022-10-16T01:18:13;7.70;99.90
46562;DHT22;32289;42.688;23.330;2022-10-16T01:21:56;7.50;99.90
46562;DHT22;32289;42.688;23.330;2022-10-16T01:33:46;7.50;99.90
46562;DHT22;32289;42.688;23.330;2022-10-16T01:37:41;7.40;99.90
46562;DHT22;32289;42.688;23.330;2022-10-16T01:41:30;7.50;99.90
46562;DHT22;32289;42.688;23.330;2022-10-16T01:45:15;7.50;99.90
46562;DHT22;32289;42.688;23.330;2022-10-16T01:49:01;7.50;99.90
46562;DHT22;32289;42.688;23.330;2022-10-16T01:52:45;7.40;99.90
46562;DHT22;32289;42.688;23.330;2022-10-16T01:56:28;7.40;99.90
46562;DHT22;32289;42.688;23.330;2022-10-16T02:00:12;7.40;99.90
46562;DHT22;32289;42.688;23.330;2022-10-16T02:03:57;7.30;99.90
46562;DHT22;32289;42.688;23.330;2022-10-16T02:07:39;7.20;99.90
46562;DHT22;32289;42.688;23.330;2022-10-16T02:11:21;7.20;99.90
46562;DHT22;32289;42.688;23.330;2022-10-16T02:15:03;7.20;99.90
46562;DHT22;32289;42.688;23.330;2022-10-16T02:18:44;7.20;99.90
46562;DHT22;32289;42.688;23.330;2022-10-16T02:22:29;7.20;99.90
46562;DHT22;32289;42.688;23.330;2022-10-16T02:26:15;7.10;99.90
46562;DHT22;32289;42.688;23.330;2022-10-16T02:30:19;7.00;99.90
46562;DHT22;32289;42.688;23.330;2022-10-16T02:34:02;7.00;99.90
46562;DHT22;32289;42.688;23.330;2022-10-16T02:37:46;7.10;99.90
46562;DHT22;32289;42.688;23.330;2022-10-16T02:41:28;7.10;99.90
46562;DHT22;32289;42.688;23.330;2022-10-16T02:45:10;7.10;99.90
46562;DHT22;32289;42.688;23.330;2022-10-16T02:48:51;7.00;99.90
46562;DHT22;32289;42.688;23.330;2022-10-16T02:52:32;7.10;99.90
46562;DHT22;32289;42.688;23.330;2022-10-16T02:56:13;6.90;99.90
46562;DHT22;32289;42.688;23.330;2022-10-16T02:59:53;7.00;99.90
46562;DHT22;32289;42.688;23.330;2022-10-16T03:03:34;7.00;99.90
46562;DHT22;32289;42.688;23.330;2022-10-16T03:07:15;7.00;99.90
46562;DHT22;32289;42.688;23.330;2022-10-16T03:10:55;6.90;99.90
46562;DHT22;32289;42.688;23.330;2022-10-16T03:14:36;6.90;99.90
46562;DHT22;32289;42.688;23.330;2022-10-16T03:18:17;6.90;99.90
46562;DHT22;32289;42.688;23.330;2022-10-16T03:21:58;6.80;99.90
46562;DHT22;32289;42.688;23.330;2022-10-16T03:25:39;6.70;99.90
46562;DHT22;32289;42.688;23.330;2022-10-16T03:29:19;6.60;99.90
46562;DHT22;32289;42.688;23.330;2022-10-16T03:33:00;6.70;99.90
46562;DHT22;32289;42.688;23.330;2022-10-16T03:36:41;6.70;99.90
46562;DHT22;32289;42.688;23.330;2022-10-16T03:40:21;6.60;99.90
46562;DHT22;32289;42.688;23.330;2022-10-16T03:44:02;6.60;99.90
46562;DHT22;32289;42.688;23.330;2022-10-16T03:47:43;6.60;99.90
46562;DHT22;32289;42.688;23.330;2022-10-16T03:51:24;6.60;99.90
46562;DHT22;32289;42.688;23.330;2022-10-16T03:55:05;6.60;99.90
46562;DHT22;32289;42.688;23.330;2022-10-16T03:58:46;6.70;99.90
46562;DHT22;32289;42.688;23.330;2022-10-16T04:02:26;6.60;99.90
46562;DHT22;32289;42.688;23.330;2022-10-16T04:06:07;6.50;99.90
46562;DHT22;32289;42.688;23.330;2022-10-16T04:09:49;6.50;99.90
46562;DHT22;32289;42.688;23.330;2022-10-16T04:13:32;6.80;99.90
46562;DHT22;32289;42.688;23.330;2022-10-16T04:17:13;6.80;99.90
46562;DHT22;32289;42.688;23.330;2022-10-16T04:20:54;6.60;99.90
46562;DHT22;32289;42.688;23.330;2022-10-16T04:24:35;6.40;99.90
46562;DHT22;32289;42.688;23.330;2022-10-16T04:28:15;6.30;99.90
46562;DHT22;32289;42.688;23.330;2022-10-16T04:31:56;6.20;99.90
46562;DHT22;32289;42.688;23.330;2022-10-16T04:35:37;6.50;99.90
46562;DHT22;32289;42.688;23.330;2022-10-16T04:39:17;6.40;99.90
46562;DHT22;32289;42.688;23.330;2022-10-16T04:42:59;6.50;99.90
46562;DHT22;32289;42.688;23.330;2022-10-16T04:46:40;6.50;99.90
46562;DHT22;32289;42.688;23.330;2022-10-16T04:50:20;6.40;99.90
46562;DHT22;32289;42.688;23.330;2022-10-16T04:54:02;6.30;99.90
46562;DHT22;32289;42.688;23.330;2022-10-16T04:57:43;6.30;99.90
46562;DHT22;32289;42.688;23.330;2022-10-16T05:01:24;6.40;99.90
46562;DHT22;32289;42.688;23.330;2022-10-16T05:05:05;6.30;99.90
46562;DHT22;32289;42.688;23.330;2022-10-16T05:08:46;6.30;99.90
46562;DHT22;32289;42.688;23.330;2022-10-16T05:12:26;6.30;99.90
46562;DHT22;32289;42.688;23.330;2022-10-16T05:16:07;6.30;99.90
46562;DHT22;32289;42.688;23.330;2022-10-16T05:19:48;6.40;99.90
46562;DHT22;32289;42.688;23.330;2022-10-16T05:23:28;6.60;99.90
46562;DHT22;32289;42.688;23.330;2022-10-16T05:27:10;6.50;99.90
46562;DHT22;32289;42.688;23.330;2022-10-16T05:30:51;6.50;99.90
46562;DHT22;32289;42.688;23.330;2022-10-16T05:34:32;6.50;99.90
46562;DHT22;32289;42.688;23.330;2022-10-16T05:38:12;6.60;99.90
46562;DHT22;32289;42.688;23.330;2022-10-16T05:41:53;6.60;99.90
46562;DHT22;32289;42.688;23.330;2022-10-16T05:45:34;6.70;99.90
46562;DHT22;32289;42.688;23.330;2022-10-16T05:49:15;6.70;99.90
46562;DHT22;32289;42.688;23.330;2022-10-16T05:52:56;6.60;99.90
46562;DHT22;32289;42.688;23.330;2022-10-16T05:56:37;6.60;99.90
46562;DHT22;32289;42.688;23.330;2022-10-16T06:00:18;6.80;99.90
46562;DHT22;32289;42.688;23.330;2022-10-16T06:03:58;7.00;99.90
46562;DHT22;32289;42.688;23.330;2022-10-16T06:07:39;7.10;99.90
46562;DHT22;32289;42.688;23.330;2022-10-16T06:11:24;7.20;99.90
46562;DHT22;32289;42.688;23.330;2022-10-16T06:15:05;7.30;99.90
46562;DHT22;32289;42.688;23.330;2022-10-16T06:18:46;7.50;99.90
46562;DHT22;32289;42.688;23.330;2022-10-16T06:22:27;7.50;99.90
46562;DHT22;32289;42.688;23.330;2022-10-16T06:26:19;7.50;99.90
46562;DHT22;32289;42.688;23.330;2022-10-16T06:30:00;7.80;99.90
46562;DHT22;32289;42.688;23.330;2022-10-16T06:33:42;7.80;99.90
46562;DHT22;32289;42.688;23.330;2022-10-16T06:37:23;8.10;99.90
46562;DHT22;32289;42.688;23.330;2022-10-16T06:41:05;8.10;99.90
46562;DHT22;32289;42.688;23.330;2022-10-16T06:44:46;8.20;99.90
46562;DHT22;32289;42.688;23.330;2022-10-16T06:48:27;8.30;99.90
46562;DHT22;32289;42.688;23.330;2022-10-16T06:52:09;8.50;99.90
46562;DHT22;32289;42.688;23.330;2022-10-16T06:55:50;8.90;99.90
46562;DHT22;32289;42.688;23.330;2022-10-16T06:59:30;9.10;99.90
46562;DHT22;32289;42.688;23.330;2022-10-16T07:03:11;9.30;99.90
46562;DHT22;32289;42.688;23.330;2022-10-16T07:06:52;9.90;99.90
46562;DHT22;32289;42.688;23.330;2022-10-16T07:10:33;13.90;94.80
46562;DHT22;32289;42.688;23.330;2022-10-16T07:14:19;15.60;86.10
46562;DHT22;32289;42.688;23.330;2022-10-16T07:18:00;16.70;77.70
46562;DHT22;32289;42.688;23.330;2022-10-16T07:21:41;14.40;83.00
46562;DHT22;32289;42.688;23.330;2022-10-16T07:25:22;16.00;81.00
46562;DHT22;32289;42.688;23.330;2022-10-16T07:29:07;17.40;76.20
46562;DHT22;32289;42.688;23.330;2022-10-16T07:32:51;18.70;67.60
46562;DHT22;32289;42.688;23.330;2022-10-16T07:36:32;18.30;68.00
46562;DHT22;32289;42.688;23.330;2022-10-16T07:40:13;16.80;72.40
46562;DHT22;32289;42.688;23.330;2022-10-16T07:43:54;18.60;68.30
46562;DHT22;32289;42.688;23.330;2022-10-16T07:47:36;19.70;63.60
46562;DHT22;32289;42.688;23.330;2022-10-16T07:51:19;20.30;61.80
46562;DHT22;32289;42.688;23.330;2022-10-16T07:55:00;19.20;62.30
46562;DHT22;32289;42.688;23.330;2022-10-16T07:58:41;20.30;62.00
46562;DHT22;32289;42.688;23.330;2022-10-16T08:02:21;19.40;63.20
46562;DHT22;32289;42.688;23.330;2022-10-16T08:06:03;21.00;59.40
46562;DHT22;32289;42.688;23.330;2022-10-16T08:09:44;21.10;59.50
46562;DHT22;32289;42.688;23.330;2022-10-16T08:13:25;21.00;57.50
46562;DHT22;32289;42.688;23.330;2022-10-16T08:17:06;21.50;57.30
46562;DHT22;32289;42.688;23.330;2022-10-16T08:20:47;21.10;58.40
46562;DHT22;32289;42.688;23.330;2022-10-16T08:24:28;20.70;60.80
46562;DHT22;32289;42.688;23.330;2022-10-16T08:28:11;21.20;57.20
46562;DHT22;32289;42.688;23.330;2022-10-16T08:31:52;19.60;62.00
46562;DHT22;32289;42.688;23.330;2022-10-16T08:35:33;21.40;58.60
46562;DHT22;32289;42.688;23.330;2022-10-16T08:39:13;21.50;56.30
46562;DHT22;32289;42.688;23.330;2022-10-16T08:43:26;20.60;57.20
46562;DHT22;32289;42.688;23.330;2022-10-16T08:47:34;20.60;57.10
46562;DHT22;32289;42.688;23.330;2022-10-16T08:51:28;20.50;60.00
46562;DHT22;32289;42.688;23.330;2022-10-16T08:59:14;20.00;59.00
46562;DHT22;32289;42.688;23.330;2022-10-16T09:03:03;20.30;58.60
46562;DHT22;32289;42.688;23.330;2022-10-16T09:06:47;19.90;58.00
46562;DHT22;32289;42.688;23.330;2022-10-16T09:10:58;20.10;54.90
46562;DHT22;32289;42.688;23.330;2022-10-16T09:22:27;19.20;56.10
46562;DHT22;32289;42.688;23.330;2022-10-16T09:26:14;18.90;57.50
46562;DHT22;32289;42.688;23.330;2022-10-16T09:29:56;21.30;52.40
46562;DHT22;32289;42.688;23.330;2022-10-16T09:33:37;21.70;50.40
46562;DHT22;32289;42.688;23.330;2022-10-16T09:37:22;20.70;51.20
46562;DHT22;32289;42.688;23.330;2022-10-16T09:41:15;19.40;54.50
46562;DHT22;32289;42.688;23.330;2022-10-16T09:44:57;19.90;56.20
46562;DHT22;32289;42.688;23.330;2022-10-16T09:48:47;20.10;53.20
46562;DHT22;32289;42.688;23.330;2022-10-16T09:52:29;18.60;55.70
46562;DHT22;32289;42.688;23.330;2022-10-16T09:56:11;19.10;55.90
46562;DHT22;32289;42.688;23.330;2022-10-16T09:59:55;19.10;55.30
46562;DHT22;32289;42.688;23.330;2022-10-16T10:03:39;20.40;53.00
46562;DHT22;32289;42.688;23.330;2022-10-16T10:07:28;19.70;53.70
46562;DHT22;32289;42.688;23.330;2022-10-16T10:11:12;19.50;54.50
46562;DHT22;32289;42.688;23.330;2022-10-16T10:14:56;19.30;53.40
46562;DHT22;32289;42.688;23.330;2022-10-16T10:18:38;21.60;49.60
46562;DHT22;32289;42.688;23.330;2022-10-16T10:26:19;20.30;51.10
46562;DHT22;32289;42.688;23.330;2022-10-16T10:38:50;20.10;52.70
46562;DHT22;32289;42.688;23.330;2022-10-16T10:42:53;19.80;54.30
46562;DHT22;32289;42.688;23.330;2022-10-16T10:50:38;18.60;56.20
46562;DHT22;32289;42.688;23.330;2022-10-16T10:54:42;19.40;56.00
46562;DHT22;32289;42.688;23.330;2022-10-16T11:06:36;20.00;52.60
46562;DHT22;32289;42.688;23.330;2022-10-16T11:14:23;19.40;53.40
46562;DHT22;32289;42.688;23.330;2022-10-16T11:18:11;19.80;52.50
46562;DHT22;32289;42.688;23.330;2022-10-16T11:22:02;20.80;52.10
46562;DHT22;32289;42.688;23.330;2022-10-16T11:25:45;20.80;49.90
46562;DHT22;32289;42.688;23.330;2022-10-16T11:29:30;18.80;53.70
46562;DHT22;32289;42.688;23.330;2022-10-16T11:33:25;20.00;53.60
46562;DHT22;32289;42.688;23.330;2022-10-16T11:37:32;20.30;53.30
46562;DHT22;32289;42.688;23.330;2022-10-16T11:41:39;19.90;52.90
46562;DHT22;32289;42.688;23.330;2022-10-16T11:45:36;20.20;51.90
46562;DHT22;32289;42.688;23.330;2022-10-16T11:49:21;19.50;53.20
46562;DHT22;32289;42.688;23.330;2022-10-16T11:57:13;19.30;53.40
46562;DHT22;32289;42.688;23.330;2022-10-16T12:01:49;19.50;53.40
46562;DHT22;32289;42.688;23.330;2022-10-16T12:09:03;20.00;53.50
46562;DHT22;32289;42.688;23.330;2022-10-16T12:12:44;19.50;55.00
46562;DHT22;32289;42.688;23.330;2022-10-16T12:16:26;19.60;53.90
46562;DHT22;32289;42.688;23.330;2022-10-16T12:23:56;19.60;53.70
46562;DHT22;32289;42.688;23.330;2022-10-16T12:27:38;19.60;53.10
46562;DHT22;32289;42.688;23.330;2022-10-16T12:31:19;19.10;53.50
46562;DHT22;32289;42.688;23.330;2022-10-16T12:35:01;19.40;55.10
46562;DHT22;32289;42.688;23.330;2022-10-16T12:38:53;19.60;54.70
46562;DHT22;32289;42.688;23.330;2022-10-16T12:42:34;20.30;53.30
46562;DHT22;32289;42.688;23.330;2022-10-16T12:49:56;19.90;52.60
46562;DHT22;32289;42.688;23.330;2022-10-16T12:53:38;19.50;53.20
46562;DHT22;32289;42.688;23.330;2022-10-16T13:21:01;19.00;52.20
46562;DHT22;32289;42.688;23.330;2022-10-16T13:28:59;18.60;52.80
46562;DHT22;32289;42.688;23.330;2022-10-16T13:32:45;18.40;53.60
46562;DHT22;32289;42.688;23.330;2022-10-16T13:36:29;18.80;53.90
46562;DHT22;32289;42.688;23.330;2022-10-16T13:40:29;18.80;53.90
46562;DHT22;32289;42.688;23.330;2022-10-16T13:44:17;18.30;54.70
46562;DHT22;32289;42.688;23.330;2022-10-16T13:48:03;18.40;54.60
46562;DHT22;32289;42.688;23.330;2022-10-16T13:51:58;18.30;53.70
46562;DHT22;32289;42.688;23.330;2022-10-16T13:55:39;18.30;53.10
46562;DHT22;32289;42.688;23.330;2022-10-16T13:59:32;18.40;52.10
46562;DHT22;32289;42.688;23.330;2022-10-16T14:03:15;18.40;51.50
46562;DHT22;32289;42.688;23.330;2022-10-16T14:06:56;18.40;54.50
46562;DHT22;32289;42.688;23.330;2022-10-16T14:10:38;18.30;51.40
46562;DHT22;32289;42.688;23.330;2022-10-16T14:14:19;18.10;51.60
46562;DHT22;32289;42.688;23.330;2022-10-16T14:18:01;17.90;52.40
46562;DHT22;32289;42.688;23.330;2022-10-16T14:21:42;18.00;51.80
46562;DHT22;32289;42.688;23.330;2022-10-16T14:25:26;17.80;52.40
46562;DHT22;32289;42.688;23.330;2022-10-16T14:29:13;17.80;54.10
46562;DHT22;32289;42.688;23.330;2022-10-16T14:32:57;17.70;53.00
46562;DHT22;32289;42.688;23.330;2022-10-16T14:36:40;17.60;52.70
46562;DHT22;32289;42.688;23.330;2022-10-16T14:40:24;17.50;53.10
46562;DHT22;32289;42.688;23.330;2022-10-16T14:44:05;17.20;52.60
46562;DHT22;32289;42.688;23.330;2022-10-16T14:47:52;17.10;53.30
46562;DHT22;32289;42.688;23.330;2022-10-16T14:51:35;17.00;53.60
46562;DHT22;32289;42.688;23.330;2022-10-16T14:55:16;16.90;54.30
46562;DHT22;32289;42.688;23.330;2022-10-16T14:58:57;16.80;54.40
46562;DHT22;32289;42.688;23.330;2022-10-16T15:02:39;16.70;55.60
46562;DHT22;32289;42.688;23.330;2022-10-16T15:06:21;16.70;55.70
46562;DHT22;32289;42.688;23.330;2022-10-16T15:10:02;16.60;55.70
46562;DHT22;32289;42.688;23.330;2022-10-16T15:13:43;16.40;56.60
46562;DHT22;32289;42.688;23.330;2022-10-16T15:17:24;16.20;57.00
46562;DHT22;32289;42.688;23.330;2022-10-16T15:21:05;16.10;57.60
46562;DHT22;32289;42.688;23.330;2022-10-16T15:24:46;15.90;58.40
46562;DHT22;32289;42.688;23.330;2022-10-16T15:28:27;15.80;58.10
46562;DHT22;32289;42.688;23.330;2022-10-16T15:32:09;15.70;59.10
46562;DHT22;32289;42.688;23.330;2022-10-16T15:35:51;15.50;58.90
46562;DHT22;32289;42.688;23.330;2022-10-16T15:39:32;15.50;59.80
46562;DHT22;32289;42.688;23.330;2022-10-16T15:43:13;15.30;61.00
46562;DHT22;32289;42.688;23.330;2022-10-16T15:46:54;15.20;60.10
46562;DHT22;32289;42.688;23.330;2022-10-16T15:50:37;15.50;61.50
46562;DHT22;32289;42.688;23.330;2022-10-16T15:54:18;15.20;61.10
46562;DHT22;32289;42.688;23.330;2022-10-16T15:58:02;14.80;60.90
46562;DHT22;32289;42.688;23.330;2022-10-16T16:01:42;14.80;62.10
46562;DHT22;32289;42.688;23.330;2022-10-16T16:05:23;14.90;61.40
46562;DHT22;32289;42.688;23.330;2022-10-16T16:09:04;15.20;62.70
46562;DHT22;32289;42.688;23.330;2022-10-16T16:12:47;15.50;63.40
46562;DHT22;32289;42.688;23.330;2022-10-16T16:16:31;15.40;65.30
46562;DHT22;32289;42.688;23.330;2022-10-16T16:20:17;14.90;64.70
46562;DHT22;32289;42.688;23.330;2022-10-16T16:23:58;14.40;66.10
46562;DHT22;32289;42.688;23.330;2022-10-16T16:27:38;14.20;67.50
46562;DHT22;32289;42.688;23.330;2022-10-16T16:31:19;14.10;69.40
46562;DHT22;32289;42.688;23.330;2022-10-16T16:35:00;14.00;70.00
46562;DHT22;32289;42.688;23.330;2022-10-16T16:38:42;13.90;69.90
46562;DHT22;32289;42.688;23.330;2022-10-16T16:42:23;13.70;72.20
46562;DHT22;32289;42.688;23.330;2022-10-16T16:46:04;13.70;72.80
46562;DHT22;32289;42.688;23.330;2022-10-16T16:49:45;13.60;74.40
46562;DHT22;32289;42.688;23.330;2022-10-16T16:53:26;13.30;76.20
46562;DHT22;32289;42.688;23.330;2022-10-16T16:57:07;13.20;77.20
46562;DHT22;32289;42.688;23.330;2022-10-16T17:00:48;13.10;78.30
46562;DHT22;32289;42.688;23.330;2022-10-16T17:04:29;12.90;79.40
46562;DHT22;32289;42.688;23.330;2022-10-16T17:08:09;12.60;80.30
46562;DHT22;32289;42.688;23.330;2022-10-16T17:11:50;12.60;81.90
46562;DHT22;32289;42.688;23.330;2022-10-16T17:15:31;12.60;83.00
46562;DHT22;32289;42.688;23.330;2022-10-16T17:19:14;12.60;83.30
46562;DHT22;32289;42.688;23.330;2022-10-16T17:22:55;12.60;84.40
46562;DHT22;32289;42.688;23.330;2022-10-16T17:26:36;12.50;84.20
46562;DHT22;32289;42.688;23.330;2022-10-16T17:30:17;12.40;83.50
46562;DHT22;32289;42.688;23.330;2022-10-16T17:33:59;12.30;84.80
46562;DHT22;32289;42.688;23.330;2022-10-16T17:37:40;12.20;85.20
46562;DHT22;32289;42.688;23.330;2022-10-16T17:41:22;12.00;86.60
46562;DHT22;32289;42.688;23.330;2022-10-16T17:45:04;11.90;87.40
46562;DHT22;32289;42.688;23.330;2022-10-16T17:48:46;11.70;88.90
46562;DHT22;32289;42.688;23.330;2022-10-16T17:52:27;11.40;87.80
46562;DHT22;32289;42.688;23.330;2022-10-16T17:56:11;11.60;90.00
46562;DHT22;32289;42.688;23.330;2022-10-16T17:59:56;11.60;90.20
46562;DHT22;32289;42.688;23.330;2022-10-16T18:03:36;11.40;90.10
46562;DHT22;32289;42.688;23.330;2022-10-16T18:07:17;11.30;90.60
46562;DHT22;32289;42.688;23.330;2022-10-16T18:10:58;11.00;90.60
46562;DHT22;32289;42.688;23.330;2022-10-16T18:14:39;11.10;91.20
46562;DHT22;32289;42.688;23.330;2022-10-16T18:18:20;10.90;91.50
46562;DHT22;32289;42.688;23.330;2022-10-16T18:22:01;10.80;92.40
46562;DHT22;32289;42.688;23.330;2022-10-16T18:25:48;11.00;92.30
46562;DHT22;32289;42.688;23.330;2022-10-16T18:29:30;11.00;92.90
46562;DHT22;32289;42.688;23.330;2022-10-16T18:33:10;10.90;93.20
46562;DHT22;32289;42.688;23.330;2022-10-16T18:36:51;10.80;93.30
46562;DHT22;32289;42.688;23.330;2022-10-16T18:40:35;10.50;94.60
46562;DHT22;32289;42.688;23.330;2022-10-16T18:44:16;10.40;94.60
46562;DHT22;32289;42.688;23.330;2022-10-16T18:47:57;10.50;94.60
46562;DHT22;32289;42.688;23.330;2022-10-16T18:51:39;10.60;93.90
46562;DHT22;32289;42.688;23.330;2022-10-16T18:55:20;10.60;93.90
46562;DHT22;32289;42.688;23.330;2022-10-16T18:59:03;10.80;94.30
46562;DHT22;32289;42.688;23.330;2022-10-16T19:02:44;10.60;94.70
46562;DHT22;32289;42.688;23.330;2022-10-16T19:06:25;10.50;95.40
46562;DHT22;32289;42.688;23.330;2022-10-16T19:10:07;10.60;95.80
46562;DHT22;32289;42.688;23.330;2022-10-16T19:13:48;10.50;95.70
46562;DHT22;32289;42.688;23.330;2022-10-16T19:17:29;10.50;95.80
46562;DHT22;32289;42.688;23.330;2022-10-16T19:21:12;10.40;95.90
46562;DHT22;32289;42.688;23.330;2022-10-16T19:24:53;10.40;96.60
46562;DHT22;32289;42.688;23.330;2022-10-16T19:28:34;10.30;96.80
46562;DHT22;32289;42.688;23.330;2022-10-16T19:32:16;10.30;97.10
46562;DHT22;32289;42.688;23.330;2022-10-16T19:39:48;10.30;97.40
46562;DHT22;32289;42.688;23.330;2022-10-16T19:43:29;10.30;97.70
46562;DHT22;32289;42.688;23.330;2022-10-16T19:47:09;10.30;97.70
46562;DHT22;32289;42.688;23.330;2022-10-16T19:50:50;10.30;97.70
46562;DHT22;32289;42.688;23.330;2022-10-16T19:54:31;10.20;98.10
46562;DHT22;32289;42.688;23.330;2022-10-16T19:58:12;10.20;97.50
46562;DHT22;32289;42.688;23.330;2022-10-16T20:01:53;9.90;97.50
46562;DHT22;32289;42.688;23.330;2022-10-16T20:05:34;9.90;98.00
46562;DHT22;32289;42.688;23.330;2022-10-16T20:09:14;10.00;98.20
46562;DHT22;32289;42.688;23.330;2022-10-16T20:12:55;9.90;97.60
46562;DHT22;32289;42.688;23.330;2022-10-16T20:16:36;9.70;98.90
46562;DHT22;32289;42.688;23.330;2022-10-16T20:20:17;9.70;99.10
46562;DHT22;32289;42.688;23.330;2022-10-16T20:23:59;9.60;99.00
46562;DHT22;32289;42.688;23.330;2022-10-16T20:27:40;9.80;99.00
46562;DHT22;32289;42.688;23.330;2022-10-16T20:31:23;9.80;99.40
46562;DHT22;32289;42.688;23.330;2022-10-16T20:35:05;9.80;99.30
46562;DHT22;32289;42.688;23.330;2022-10-16T20:38:47;9.60;99.20
46562;DHT22;32289;42.688;23.330;2022-10-16T20:42:28;9.60;99.40
46562;DHT22;32289;42.688;23.330;2022-10-16T20:46:10;9.60;99.70
46562;DHT22;32289;42.688;23.330;2022-10-16T20:49:54;9.50;99.90
46562;DHT22;32289;42.688;23.330;2022-10-16T20:53:35;9.40;99.90
46562;DHT22;32289;42.688;23.330;2022-10-16T20:57:15;9.30;99.90
46562;DHT22;32289;42.688;23.330;2022-10-16T21:01:05;9.30;99.90
46562;DHT22;32289;42.688;23.330;2022-10-16T21:04:46;9.10;99.90
46562;DHT22;32289;42.688;23.330;2022-10-16T21:08:27;8.90;99.90
46562;DHT22;32289;42.688;23.330;2022-10-16T21:12:08;8.90;99.90
46562;DHT22;32289;42.688;23.330;2022-10-16T21:15:49;8.70;99.90
46562;DHT22;32289;42.688;23.330;2022-10-16T21:19:31;8.80;99.90
46562;DHT22;32289;42.688;23.330;2022-10-16T21:23:11;8.80;99.90
46562;DHT22;32289;42.688;23.330;2022-10-16T21:26:52;8.70;99.90
46562;DHT22;32289;42.688;23.330;2022-10-16T21:30:33;8.70;99.90
46562;DHT22;32289;42.688;23.330;2022-10-16T21:34:14;8.70;99.90
46562;DHT22;32289;42.688;23.330;2022-10-16T21:37:54;8.70;99.90
46562;DHT22;32289;42.688;23.330;2022-10-16T21:41:35;8.80;99.90
46562;DHT22;32289;42.688;23.330;2022-10-16T21:45:16;8.80;99.90
46562;DHT22;32289;42.688;23.330;2022-10-16T21:48:59;8.70;99.90
46562;DHT22;32289;42.688;23.330;2022-10-16T21:52:40;8.70;99.90
46562;DHT22;32289;42.688;23.330;2022-10-16T21:56:21;8.60;99.90
46562;DHT22;32289;42.688;23.330;2022-10-16T22:00:04;8.60;99.90
46562;DHT22;32289;42.688;23.330;2022-10-16T22:03:45;8.50;99.90
46562;DHT22;32289;42.688;23.330;2022-10-16T22:07:26;8.50;99.90
46562;DHT22;32289;42.688;23.330;2022-10-16T22:11:12;8.50;99.90
46562;DHT22;32289;42.688;23.330;2022-10-16T22:14:53;8.50;99.90
46562;DHT22;32289;42.688;23.330;2022-10-16T22:18:35;8.50;99.90
46562;DHT22;32289;42.688;23.330;2022-10-16T22:22:16;8.30;99.90
46562;DHT22;32289;42.688;23.330;2022-10-16T22:26:06;8.30;99.90
46562;DHT22;32289;42.688;23.330;2022-10-16T22:29:50;8.20;99.90
46562;DHT22;32289;42.688;23.330;2022-10-16T22:33:31;8.30;99.90
46562;DHT22;32289;42.688;23.330;2022-10-16T22:37:12;8.30;99.90
46562;DHT22;32289;42.688;23.330;2022-10-16T22:40:52;8.20;99.90
46562;DHT22;32289;42.688;23.330;2022-10-16T22:44:33;8.10;99.90
46562;DHT22;32289;42.688;23.330;2022-10-16T22:48:14;7.90;99.90
46562;DHT22;32289;42.688;23.330;2022-10-16T22:51:55;7.80;99.90
46562;DHT22;32289;42.688;23.330;2022-10-16T22:55:35;7.80;99.90
46562;DHT22;32289;42.688;23.330;2022-10-16T22:59:16;7.80;99.90
46562;DHT22;32289;42.688;23.330;2022-10-16T23:02:57;7.90;99.90
46562;DHT22;32289;42.688;23.330;2022-10-16T23:06:37;7.80;99.90
46562;DHT22;32289;42.688;23.330;2022-10-16T23:10:18;7.70;99.90
46562;DHT22;32289;42.688;23.330;2022-10-16T23:14:00;7.60;99.90
46562;DHT22;32289;42.688;23.330;2022-10-16T23:17:40;7.60;99.90
46562;DHT22;32289;42.688;23.330;2022-10-16T23:21:23;7.50;99.90
46562;DHT22;32289;42.688;23.330;2022-10-16T23:25:04;7.50;99.90
46562;DHT22;32289;42.688;23.330;2022-10-16T23:28:46;7.50;99.90
46562;DHT22;32289;42.688;23.330;2022-10-16T23:32:26;7.50;99.90
46562;DHT22;32289;42.688;23.330;2022-10-16T23:36:13;7.50;99.90
46562;DHT22;32289;42.688;23.330;2022-10-16T23:39:54;7.50;99.90
46562;DHT22;32289;42.688;23.330;2022-10-16T23:43:34;7.40;99.90
46562;DHT22;32289;42.688;23.330;2022-10-16T23:47:15;7.30;99.90
46562;DHT22;32289;42.688;23.330;2022-10-16T23:50:56;7.20;99.90
46562;DHT22;32289;42.688;23.330;2022-10-16T23:54:36;7.20;99.90
46562;DHT22;32289;42.688;23.330;2022-10-16T23:58:17;7.20;99.90
